createdAt,value
2022-09-07T00:02:08.615Z,70.50
2022-09-07T00:04:35.392Z,70.60
2022-09-07T00:07:02.207Z,70.80
2022-09-07T00:09:29.214Z,70.90
2022-09-07T00:11:55.914Z,71.10
2022-09-07T00:14:22.653Z,71.20
2022-09-07T00:16:50.264Z,71.30
2022-09-07T00:19:17.144Z,71.50
2022-09-07T00:21:44.001Z,71.40
2022-09-07T00:24:10.839Z,71.70
2022-09-07T00:26:37.939Z,71.90
2022-09-07T00:29:06.387Z,71.90
2022-09-07T00:31:33.263Z,72.00
2022-09-07T00:34:01.948Z,72.00
2022-09-07T00:36:29.626Z,72.10
2022-09-07T00:38:59.522Z,72.90
2022-09-07T00:41:26.235Z,71.90
2022-09-07T00:44:01.256Z,71.50
2022-09-07T00:46:32.076Z,71.90
2022-09-07T00:49:14.924Z,71.80
2022-09-07T00:51:53.176Z,71.70
2022-09-07T00:54:24.843Z,71.80
2022-09-07T00:56:53.769Z,71.80
2022-09-07T00:59:25.263Z,71.80
2022-09-07T01:01:52.607Z,71.90
2022-09-07T01:04:29.370Z,72.00
2022-09-07T01:06:57.193Z,72.20
2022-09-07T01:09:26.083Z,72.00
2022-09-07T01:12:01.099Z,72.10
2022-09-07T01:14:47.712Z,72.30
2022-09-07T01:17:50.147Z,72.40
2022-09-07T01:20:38.142Z,72.10
2022-09-07T01:23:28.284Z,71.90
2022-09-07T01:26:38.413Z,71.70
2022-09-07T01:29:38.284Z,71.60
2022-09-07T01:32:32.104Z,71.90
2022-09-07T01:35:03.241Z,72.00
2022-09-07T01:37:35.724Z,72.40
2022-09-07T01:40:17.132Z,72.80
2022-09-07T01:43:00.084Z,73.00
2022-09-07T01:45:32.106Z,72.70
2022-09-07T01:48:03.496Z,72.90
2022-09-07T01:50:42.945Z,72.90
2022-09-07T01:53:17.660Z,73.00
2022-09-07T01:55:49.854Z,73.00
2022-09-07T01:58:25.880Z,73.20
2022-09-07T02:01:07.723Z,73.00
2022-09-07T02:03:42.759Z,73.30
2022-09-07T02:06:38.961Z,74.20
2022-09-07T02:09:14.505Z,73.00
2022-09-07T02:11:47.471Z,73.50
2022-09-07T02:14:31.088Z,73.30
2022-09-07T02:17:03.904Z,73.30
2022-09-07T02:19:36.515Z,73.30
2022-09-07T02:22:08.713Z,73.40
2022-09-07T02:24:41.968Z,73.50
2022-09-07T02:27:18.380Z,73.70
2022-09-07T02:29:45.276Z,73.60
2022-09-07T02:32:12.051Z,73.60
2022-09-07T02:34:38.847Z,73.50
2022-09-07T02:37:09.056Z,73.60
2022-09-07T02:39:35.958Z,73.40
2022-09-07T02:42:02.800Z,73.40
2022-09-07T02:44:34.640Z,73.70
2022-09-07T02:47:07.616Z,73.90
2022-09-07T02:49:46.448Z,73.80
2022-09-07T02:52:31.120Z,73.90
2022-09-07T02:55:13.338Z,73.90
2022-09-07T02:58:01.599Z,73.80
2022-09-07T03:00:34.030Z,73.80
2022-09-07T03:03:08.446Z,73.40
2022-09-07T03:05:49.686Z,73.60
2022-09-07T03:08:27.301Z,73.50
2022-09-07T03:10:54.596Z,73.20
2022-09-07T03:13:29.625Z,73.20
2022-09-07T03:15:57.686Z,73.10
2022-09-07T03:18:26.013Z,72.90
2022-09-07T03:20:52.928Z,72.50
2022-09-07T03:23:20.005Z,72.40
2022-09-07T03:25:49.093Z,72.20
2022-09-07T03:28:16.282Z,72.30
2022-09-07T03:30:47.666Z,72.40
2022-09-07T03:33:15.928Z,72.90
2022-09-07T03:35:47.063Z,73.00
2022-09-07T03:38:13.899Z,73.40
2022-09-07T03:40:40.736Z,73.30
2022-09-07T03:43:08.587Z,73.20
2022-09-07T03:45:35.290Z,73.40
2022-09-07T03:48:02.177Z,73.50
2022-09-07T03:50:29.333Z,73.60
2022-09-07T03:52:56.071Z,74.00
2022-09-07T03:55:22.802Z,74.40
2022-09-07T03:57:49.580Z,74.60
2022-09-07T04:00:18.351Z,75.00
2022-09-07T04:02:45.194Z,75.20
2022-09-07T04:05:12.013Z,75.40
2022-09-07T04:07:38.841Z,75.60
2022-09-07T04:10:06.136Z,75.70
2022-09-07T04:12:32.836Z,76.00
2022-09-07T04:14:59.638Z,76.10
2022-09-07T04:17:26.405Z,76.30
2022-09-07T04:19:53.098Z,76.30
2022-09-07T04:22:20.003Z,76.30
2022-09-07T04:24:46.777Z,76.30
2022-09-07T04:27:13.485Z,76.40
2022-09-07T04:29:40.210Z,76.60
2022-09-07T04:32:15.052Z,76.60
2022-09-07T04:34:42.668Z,76.80
2022-09-07T04:37:09.372Z,76.70
2022-09-07T04:39:36.171Z,76.50
2022-09-07T04:42:03.299Z,76.40
2022-09-07T04:44:30.047Z,76.30
2022-09-07T04:46:56.792Z,76.50
2022-09-07T04:49:23.689Z,76.70
2022-09-07T04:51:50.385Z,77.60
2022-09-07T04:54:17.125Z,77.00
2022-09-07T04:56:43.868Z,77.00
2022-09-07T04:59:10.655Z,76.90
2022-09-07T05:01:37.558Z,76.90
2022-09-07T05:04:04.786Z,77.20
2022-09-07T05:06:31.747Z,77.20
2022-09-07T05:08:59.493Z,77.30
2022-09-07T05:11:29.389Z,77.50
2022-09-07T05:13:58.334Z,77.60
2022-09-07T05:16:27.067Z,77.60
2022-09-07T05:18:56.663Z,77.60
2022-09-07T05:21:26.048Z,77.60
2022-09-07T05:23:54.420Z,77.80
2022-09-07T05:26:22.890Z,77.90
2022-09-07T05:28:53.060Z,78.00
2022-09-07T05:31:23.783Z,78.20
2022-09-07T05:36:39.516Z,78.20
2022-09-07T05:39:07.424Z,78.10
2022-09-07T05:41:34.498Z,78.30
2022-09-07T05:46:52.985Z,78.30
2022-09-07T05:49:19.743Z,78.30
2022-09-07T05:51:47.003Z,78.30
2022-09-07T05:54:19.861Z,78.20
2022-09-07T05:56:46.778Z,78.20
2022-09-07T05:59:13.480Z,78.20
2022-09-07T06:01:42.325Z,78.40
2022-09-07T06:04:09.144Z,78.40
2022-09-07T06:06:38.978Z,78.40
2022-09-07T06:09:06.542Z,78.60
2022-09-07T06:11:33.482Z,78.50
2022-09-07T06:14:00.222Z,78.70
2022-09-07T06:16:27.118Z,78.70
2022-09-07T06:18:54.527Z,78.80
2022-09-07T06:21:23.390Z,79.50
2022-09-07T06:23:53.825Z,78.80
2022-09-07T06:26:26.626Z,78.70
2022-09-07T06:28:57.634Z,78.70
2022-09-07T06:31:25.783Z,78.80
2022-09-07T06:33:54.451Z,79.10
2022-09-07T06:36:28.529Z,79.20
2022-09-07T06:38:58.942Z,79.40
2022-09-07T06:44:16.482Z,79.60
2022-09-07T06:49:30.211Z,79.70
2022-09-07T06:51:57.219Z,79.40
2022-09-07T06:57:10.813Z,79.40
2022-09-07T06:59:38.298Z,79.30
2022-09-07T07:02:06.439Z,80.20
2022-09-07T07:04:39.450Z,79.40
2022-09-07T07:07:10.192Z,79.40
2022-09-07T07:09:41.039Z,79.50
2022-09-07T07:12:08.707Z,79.50
2022-09-07T07:14:38.475Z,79.50
2022-09-07T07:17:08.067Z,79.50
2022-09-07T07:19:34.848Z,79.60
2022-09-07T07:22:14.249Z,79.70
2022-09-07T07:24:45.387Z,79.80
2022-09-07T07:27:12.230Z,79.50
2022-09-07T07:29:42.051Z,79.40
2022-09-07T07:32:10.303Z,79.30
2022-09-07T07:34:37.069Z,79.80
2022-09-07T07:37:04.107Z,79.10
2022-09-07T07:42:18.409Z,77.70
2022-09-07T07:44:45.321Z,77.20
2022-09-07T07:47:12.089Z,76.40
2022-09-07T07:49:38.814Z,76.10
2022-09-07T07:54:53.721Z,76.20
2022-09-07T07:57:20.439Z,76.40
2022-09-07T07:59:47.139Z,76.70
2022-09-07T08:02:16.428Z,76.90
2022-09-07T08:04:43.508Z,77.20
2022-09-07T08:07:13.151Z,77.50
2022-09-07T08:09:51.169Z,77.60
2022-09-07T08:12:19.641Z,78.00
2022-09-07T08:14:49.226Z,77.80
2022-09-07T08:17:17.353Z,76.70
2022-09-07T08:19:47.178Z,75.20
2022-09-07T08:22:13.943Z,74.30
2022-09-07T08:24:40.697Z,73.90
2022-09-07T08:27:07.732Z,74.30
2022-09-07T08:29:35.585Z,74.30
2022-09-07T08:32:05.146Z,73.70
2022-09-07T08:34:32.133Z,73.60
2022-09-07T08:37:01.977Z,73.40
2022-09-07T08:39:28.716Z,73.40
2022-09-07T08:42:01.668Z,73.40
2022-09-07T08:45:11.765Z,73.30
2022-09-07T08:47:51.520Z,73.50
2022-09-07T08:50:28.670Z,73.40
2022-09-07T08:53:09.368Z,72.80
2022-09-07T08:55:40.395Z,72.90
2022-09-07T08:58:27.019Z,72.60
2022-09-07T09:06:45.782Z,71.20
2022-09-07T09:09:44.030Z,70.20
2022-09-07T09:12:29.167Z,70.40
2022-09-07T09:15:04.611Z,70.20
2022-09-07T09:17:47.038Z,70.20
2022-09-07T09:20:31.836Z,69.40
2022-09-07T09:23:06.761Z,69.20
2022-09-07T09:25:39.783Z,68.50
2022-09-07T09:28:08.371Z,67.90
2022-09-07T09:30:35.196Z,68.30
2022-09-07T09:33:26.002Z,67.80
2022-09-07T09:36:01.038Z,67.80
2022-09-07T09:38:34.313Z,67.50
2022-09-07T09:41:12.460Z,67.10
2022-09-07T09:43:52.004Z,66.70
2022-09-07T09:46:24.681Z,66.70
2022-09-07T09:48:59.573Z,66.60
2022-09-07T09:54:39.321Z,66.40
2022-09-07T09:57:06.145Z,66.40
2022-09-07T10:05:45.498Z,65.30
2022-09-07T10:08:22.360Z,64.80
2022-09-07T10:11:07.052Z,63.50
2022-09-07T10:13:51.964Z,63.30
2022-09-07T10:16:19.176Z,63.00
2022-09-07T10:18:58.467Z,63.10
2022-09-07T10:21:30.051Z,62.40
2022-09-07T10:24:06.051Z,61.30
2022-09-07T10:26:34.289Z,61.20
2022-09-07T10:29:24.781Z,60.90
2022-09-07T10:32:09.618Z,60.50
2022-09-07T10:34:43.302Z,60.00
2022-09-07T10:37:13.586Z,59.40
2022-09-07T10:40:01.875Z,58.70
2022-09-07T10:42:33.030Z,58.80
2022-09-07T10:45:19.273Z,58.70
2022-09-07T10:47:52.152Z,58.10
2022-09-07T10:50:39.635Z,58.10
2022-09-07T10:53:40.324Z,58.10
2022-09-07T10:56:25.860Z,58.00
2022-09-07T11:00:07.513Z,57.60
2022-09-07T11:02:42.083Z,58.00
2022-09-07T11:05:24.096Z,57.00
2022-09-07T11:08:16.545Z,56.90
2022-09-07T11:10:52.240Z,56.80
2022-09-07T11:13:24.129Z,56.60
2022-09-07T11:15:56.818Z,56.30
2022-09-07T11:18:49.825Z,55.80
2022-09-07T11:24:17.569Z,55.60
2022-09-07T11:27:02.535Z,55.80
2022-09-07T11:30:01.485Z,55.30
2022-09-07T11:32:37.384Z,55.70
2022-09-07T11:35:24.921Z,55.10
2022-09-07T11:37:59.568Z,54.70
2022-09-07T11:40:42.071Z,54.50
2022-09-07T11:43:25.133Z,55.10
2022-09-07T11:45:56.628Z,54.70
2022-09-07T11:48:48.400Z,54.50
2022-09-07T11:51:19.750Z,54.50
2022-09-07T11:53:54.356Z,53.80
2022-09-07T11:56:28.314Z,53.70
2022-09-07T11:59:15.036Z,54.00
2022-09-07T12:01:44.952Z,54.20
2022-09-07T12:04:35.788Z,54.30
2022-09-07T12:07:26.328Z,53.90
2022-09-07T12:10:14.573Z,53.00
2022-09-07T12:13:05.722Z,53.20
2022-09-07T12:15:43.194Z,53.20
2022-09-07T12:18:24.971Z,52.40
2022-09-07T12:20:52.098Z,52.70
2022-09-07T12:23:32.318Z,52.10
2022-09-07T12:26:32.717Z,52.50
2022-09-07T12:28:59.371Z,51.60
2022-09-07T12:31:57.654Z,51.10
2022-09-07T12:34:33.954Z,51.30
2022-09-07T12:37:12.557Z,51.30
2022-09-07T12:39:43.873Z,50.70
2022-09-07T12:42:34.348Z,50.60
2022-09-07T12:45:28.645Z,50.50
2022-09-07T12:48:10.076Z,50.80
2022-09-07T12:50:44.198Z,50.80
2022-09-07T12:53:13.713Z,50.00
2022-09-07T12:58:58.446Z,49.20
2022-09-07T13:01:55.986Z,48.70
2022-09-07T13:04:28.993Z,48.20
2022-09-07T13:07:24.098Z,48.30
2022-09-07T13:09:58.885Z,48.10
2022-09-07T13:15:33.653Z,48.10
2022-09-07T13:18:00.752Z,48.60
2022-09-07T13:20:33.879Z,48.60
2022-09-07T13:23:25.432Z,49.10
2022-09-07T13:25:54.965Z,48.90
2022-09-07T13:28:52.696Z,48.50
2022-09-07T13:32:12.658Z,48.40
2022-09-07T13:34:49.335Z,49.30
2022-09-07T13:37:24.512Z,49.30
2022-09-07T13:39:54.749Z,48.60
2022-09-07T13:42:28.765Z,48.70
2022-09-07T13:45:02.220Z,48.30
2022-09-07T13:47:48.579Z,47.70
2022-09-07T13:50:24.063Z,46.90
2022-09-07T13:53:19.617Z,46.80
2022-09-07T13:55:53.313Z,46.40
2022-09-07T13:58:28.507Z,47.00
2022-09-07T14:00:59.666Z,46.90
2022-09-07T14:03:30.178Z,46.70
2022-09-07T14:06:16.973Z,46.50
2022-09-07T14:08:57.493Z,46.90
2022-09-07T14:11:41.185Z,46.30
2022-09-07T14:14:13.967Z,46.70
2022-09-07T14:16:46.734Z,46.30
2022-09-07T14:19:26.075Z,46.80
2022-09-07T14:21:59.145Z,46.80
2022-09-07T14:24:34.332Z,46.50
2022-09-07T14:27:01.420Z,45.90
2022-09-07T14:29:33.683Z,45.60
2022-09-07T14:32:02.993Z,45.10
2022-09-07T14:34:38.532Z,45.40
2022-09-07T14:37:08.494Z,45.00
2022-09-07T14:39:42.120Z,45.00
2022-09-07T14:42:12.305Z,45.00
2022-09-07T14:44:43.364Z,45.10
2022-09-07T14:47:29.737Z,45.20
2022-09-07T14:50:06.218Z,45.40
2022-09-07T14:52:43.588Z,45.00
2022-09-07T14:55:36.996Z,44.70
2022-09-07T14:58:15.696Z,44.80
2022-09-07T15:01:37.168Z,44.80
2022-09-07T15:03:40.828Z,44.30
2022-09-07T15:07:00.482Z,44.60
2022-09-07T15:08:56.588Z,44.50
2022-09-07T15:11:36.173Z,44.50
2022-09-07T15:14:20.358Z,44.10
2022-09-07T15:19:47.115Z,44.20
2022-09-07T15:22:14.175Z,44.40
2022-09-07T15:24:40.850Z,44.30
2022-09-07T15:27:24.334Z,44.50
2022-09-07T15:29:51.172Z,44.60
2022-09-07T15:32:18.722Z,44.10
2022-09-07T15:34:45.744Z,44.80
2022-09-07T15:39:59.803Z,44.20
2022-09-07T15:45:14.782Z,44.30
2022-09-07T15:47:47.171Z,44.40
2022-09-07T15:50:16.771Z,44.20
2022-09-07T15:52:46.287Z,44.10
2022-09-07T15:55:18.046Z,44.00
2022-09-07T15:57:49.202Z,44.00
2022-09-07T16:00:16.602Z,44.00
2022-09-07T16:05:31.454Z,44.40
2022-09-07T16:10:55.608Z,44.70
2022-09-07T16:13:24.334Z,45.10
2022-09-07T16:15:51.942Z,45.20
2022-09-07T16:18:19.254Z,45.00
2022-09-07T16:20:47.312Z,45.00
2022-09-07T16:23:16.945Z,45.20
2022-09-07T16:25:56.887Z,45.50
2022-09-07T16:28:23.793Z,45.90
2022-09-07T16:30:50.634Z,45.10
2022-09-07T16:33:17.462Z,45.10
2022-09-07T16:35:44.273Z,44.90
2022-09-07T16:40:59.135Z,45.20
2022-09-07T16:43:26.184Z,45.30
2022-09-07T16:46:07.651Z,45.30
2022-09-07T16:48:36.249Z,45.50
2022-09-07T16:51:05.061Z,45.40
2022-09-07T16:53:34.364Z,45.40
2022-09-07T16:56:10.094Z,45.40
2022-09-07T16:58:43.203Z,45.90
2022-09-07T17:01:12.708Z,45.70
2022-09-07T17:03:40.297Z,45.50
2022-09-07T17:06:10.184Z,45.70
2022-09-07T17:08:38.170Z,45.60
2022-09-07T17:11:09.977Z,46.20
2022-09-07T17:13:40.116Z,46.10
2022-09-07T17:16:10.109Z,46.30
2022-09-07T17:21:24.677Z,46.80
2022-09-07T17:23:55.509Z,47.40
2022-09-07T17:26:27.150Z,47.70
2022-09-07T17:28:59.770Z,48.00
2022-09-07T17:34:17.562Z,48.30
2022-09-07T17:36:44.491Z,48.40
2022-09-07T17:39:16.184Z,48.60
2022-09-07T17:41:44.187Z,49.00
2022-09-07T17:44:11.326Z,49.20
2022-09-07T17:46:38.085Z,49.60
2022-09-07T17:49:07.090Z,49.90
2022-09-07T17:51:36.107Z,50.60
2022-09-07T17:54:09.561Z,50.90
2022-09-07T17:56:40.990Z,51.00
2022-09-07T18:01:56.392Z,50.60
2022-09-07T18:04:24.044Z,50.50
2022-09-07T18:06:54.016Z,50.60
2022-09-07T18:09:20.905Z,50.90
2022-09-07T18:11:49.019Z,50.70
2022-09-07T18:14:16.750Z,50.80
2022-09-07T18:16:46.074Z,51.40
2022-09-07T18:19:17.845Z,51.50
2022-09-07T18:21:45.029Z,51.40
2022-09-07T18:24:16.923Z,51.70
2022-09-07T18:26:50.194Z,51.90
2022-09-07T18:29:28.899Z,51.90
2022-09-07T18:31:57.139Z,52.00
2022-09-07T18:34:29.397Z,52.70
2022-09-07T18:36:58.564Z,52.50
2022-09-07T18:39:28.869Z,52.90
2022-09-07T18:41:55.690Z,53.10
2022-09-07T18:47:21.099Z,53.20
2022-09-07T18:49:50.042Z,53.10
2022-09-07T18:55:08.686Z,53.30
2022-09-07T18:57:36.479Z,53.20
2022-09-07T19:00:05.699Z,53.10
2022-09-07T19:02:33.549Z,53.40
2022-09-07T19:07:47.163Z,53.70
2022-09-07T19:10:17.050Z,53.60
2022-09-07T19:12:45.918Z,53.50
2022-09-07T19:15:13.488Z,53.50
2022-09-07T19:17:40.433Z,53.80
2022-09-07T19:20:07.798Z,54.10
2022-09-07T19:22:34.679Z,54.00
2022-09-07T19:25:01.527Z,54.00
2022-09-07T19:27:28.487Z,53.90
2022-09-07T19:29:55.242Z,54.00
2022-09-07T19:32:22.089Z,54.40
2022-09-07T19:34:54.373Z,54.70
2022-09-07T19:37:25.387Z,55.30
2022-09-07T19:39:55.095Z,55.30
2022-09-07T19:42:22.563Z,55.40
2022-09-07T19:44:49.776Z,55.30
2022-09-07T19:47:16.627Z,55.40
2022-09-07T19:49:43.409Z,55.70
2022-09-07T19:52:10.423Z,55.90
2022-09-07T19:54:37.273Z,56.30
2022-09-07T19:57:05.172Z,56.60
2022-09-07T19:59:32.064Z,56.80
2022-09-07T20:01:58.795Z,57.10
2022-09-07T20:04:25.654Z,57.30
2022-09-07T20:06:52.487Z,57.70
2022-09-07T20:09:20.531Z,57.90
2022-09-07T20:11:47.948Z,57.70
2022-09-07T20:14:16.612Z,57.30
2022-09-07T20:16:44.124Z,57.60
2022-09-07T20:19:14.470Z,57.70
2022-09-07T20:21:41.567Z,57.70
2022-09-07T20:24:12.213Z,57.50
2022-09-07T20:26:39.037Z,57.50
2022-09-07T20:29:26.127Z,57.50
2022-09-07T20:31:53.691Z,57.60
2022-09-07T20:34:20.741Z,57.40
2022-09-07T20:36:49.730Z,57.60
2022-09-07T20:39:17.173Z,57.70
2022-09-07T20:41:44.510Z,57.50
2022-09-07T20:44:11.569Z,57.60
2022-09-07T20:46:38.766Z,57.70
2022-09-07T20:49:05.846Z,57.30
2022-09-07T20:51:35.223Z,57.60
2022-09-07T20:54:02.091Z,57.90
2022-09-07T20:56:31.151Z,58.20
2022-09-07T20:59:00.298Z,58.50
2022-09-07T21:01:28.349Z,58.70
2022-09-07T21:04:00.264Z,58.10
2022-09-07T21:06:28.569Z,58.50
2022-09-07T21:08:56.321Z,58.50
2022-09-07T21:11:49.388Z,58.40
2022-09-07T21:14:19.242Z,57.80
2022-09-07T21:16:45.956Z,57.70
2022-09-07T21:19:12.936Z,57.60
2022-09-07T21:21:41.932Z,57.90
2022-09-07T21:24:17.823Z,58.30
2022-09-07T21:26:44.947Z,58.60
2022-09-07T21:29:23.310Z,58.80
2022-09-07T21:31:52.237Z,59.20
2022-09-07T21:34:19.052Z,59.00
2022-09-07T21:36:46.205Z,59.20
2022-09-07T21:39:14.873Z,59.50
2022-09-07T21:41:43.367Z,59.40
2022-09-07T21:44:13.069Z,59.10
2022-09-07T21:46:40.297Z,59.00
2022-09-07T21:49:07.052Z,59.70
2022-09-07T21:51:33.824Z,59.00
2022-09-07T21:54:01.484Z,59.00
2022-09-07T21:56:30.249Z,58.80
2022-09-07T21:58:59.126Z,58.90
2022-09-07T22:01:28.058Z,59.40
2022-09-07T22:03:57.525Z,59.50
2022-09-07T22:06:25.269Z,59.60
2022-09-07T22:08:52.025Z,59.60
2022-09-07T22:11:20.850Z,59.80
2022-09-07T22:13:47.973Z,60.20
2022-09-07T22:16:15.465Z,60.10
2022-09-07T22:18:46.208Z,60.10
2022-09-07T22:21:15.818Z,60.00
2022-09-07T22:23:48.331Z,60.20
2022-09-07T22:26:18.055Z,59.60
2022-09-07T22:28:44.810Z,59.70
2022-09-07T22:31:17.670Z,60.10
2022-09-07T22:33:46.500Z,60.80
2022-09-07T22:36:22.523Z,60.50
2022-09-07T22:38:52.395Z,60.30
2022-09-07T22:41:21.550Z,60.60
2022-09-07T22:43:51.036Z,60.90
2022-09-07T22:46:20.914Z,61.00
2022-09-07T22:48:48.035Z,61.20
2022-09-07T22:51:15.781Z,61.50
2022-09-07T22:53:44.300Z,61.20
2022-09-07T22:56:18.493Z,61.30
2022-09-07T22:58:47.261Z,61.40
2022-09-07T23:01:14.445Z,61.70
2022-09-07T23:03:41.757Z,61.70
2022-09-07T23:06:08.926Z,61.30
2022-09-07T23:08:35.622Z,61.10
2022-09-07T23:11:05.169Z,61.60
2022-09-07T23:13:33.862Z,61.90
2022-09-07T23:16:06.206Z,61.90
2022-09-07T23:18:34.140Z,61.40
2022-09-07T23:21:01.852Z,61.60
2022-09-07T23:23:34.411Z,61.50
2022-09-07T23:26:02.901Z,61.90
2022-09-07T23:28:31.247Z,62.50
2022-09-07T23:30:59.000Z,63.00
2022-09-07T23:33:26.430Z,63.10
2022-09-07T23:36:01.533Z,63.30
2022-09-07T23:38:29.201Z,63.40
2022-09-07T23:40:57.422Z,63.40
2022-09-07T23:43:27.185Z,63.50
2022-09-07T23:45:54.958Z,63.40
2022-09-07T23:48:22.832Z,63.60
2022-09-07T23:50:49.905Z,63.70
2022-09-07T23:53:18.040Z,63.80
2022-09-07T23:55:46.546Z,64.10
2022-09-07T23:58:13.219Z,64.10
